Agate, Nebraska
Current Conditions -  °F | °C
As of 4:53 PM on Thursday 27 Nov 2014 (Local Time) from KTOR Reporting Station
Clear Clear  
Wind Chill: 54°   Ceiling: Unl
Heat Index: 54°   Visibility: 10mi
Dew Point: 25°   Wind: 17mph
Humidity: 33%   Direction: 270°W
Pressure: 29.98"   Gusts: 26mph
Location:  42.42°N, 103.79°W
Report Text: KTOR 272353Z AUTO 27015G23KT 10SM CLR 12/M04 A2998 RMK AO2 PK WND 26026/2302 SLP166 T01221039 10156 20011 58002 $
Loading
Personal Weather Stations






























Interactive Weather Map New forecast layout! Learn more

10-Day Weather Forecast

Advertisements
Track Severe Weather on mobile